createdAt,value
2018-08-12T00:02:03.366Z,15.07
2018-08-12T00:04:31.226Z,15.34
2018-08-12T00:06:58.985Z,15.07
2018-08-12T00:09:26.704Z,15.53
2018-08-12T00:11:54.462Z,15.74
2018-08-12T00:14:22.203Z,15.73
2018-08-12T00:16:49.930Z,15.55
2018-08-12T00:19:17.612Z,15.59
2018-08-12T00:21:45.430Z,15.50
2018-08-12T00:24:13.081Z,15.28
2018-08-12T00:26:40.820Z,15.58
2018-08-12T00:29:08.537Z,15.61
2018-08-12T00:31:36.213Z,15.79
2018-08-12T00:34:04.093Z,15.65
2018-08-12T00:36:31.988Z,15.75
2018-08-12T00:38:59.797Z,15.58
2018-08-12T00:41:27.669Z,15.76
2018-08-12T00:43:55.403Z,15.63
2018-08-12T00:46:23.118Z,15.35
2018-08-12T00:48:50.861Z,14.99
2018-08-12T00:51:18.601Z,15.38
2018-08-12T00:53:46.352Z,15.58
2018-08-12T00:56:14.069Z,15.47
2018-08-12T00:58:41.912Z,15.67
2018-08-12T01:01:09.683Z,15.29
2018-08-12T01:03:37.390Z,15.31
2018-08-12T01:06:05.150Z,15.53
2018-08-12T01:08:32.862Z,15.51
2018-08-12T01:11:00.598Z,15.26
2018-08-12T01:13:28.423Z,15.26
2018-08-12T01:15:56.165Z,15.24
2018-08-12T01:18:23.911Z,15.35
2018-08-12T01:20:51.679Z,15.29
2018-08-12T01:23:19.408Z,15.18
2018-08-12T01:25:47.204Z,15.37
2018-08-12T01:28:14.949Z,15.28
2018-08-12T01:30:42.723Z,15.15
2018-08-12T01:33:10.538Z,15.13
2018-08-12T01:35:38.329Z,14.97
2018-08-12T01:38:06.066Z,15.15
2018-08-12T01:40:33.853Z,14.95
2018-08-12T01:43:01.701Z,15.11
2018-08-12T01:45:29.485Z,14.89
2018-08-12T01:47:57.205Z,14.78
2018-08-12T01:50:24.969Z,15.13
2018-08-12T01:52:52.711Z,15.03
2018-08-12T01:55:20.448Z,14.94
2018-08-12T01:57:48.256Z,14.72
2018-08-12T02:00:18.357Z,14.77
2018-08-12T02:02:46.455Z,14.81
2018-08-12T02:05:14.267Z,14.94
2018-08-12T02:07:42.395Z,14.68
2018-08-12T02:10:10.415Z,14.48
2018-08-12T02:12:38.457Z,14.85
2018-08-12T02:15:07.182Z,14.79
2018-08-12T02:17:34.910Z,14.86
2018-08-12T02:20:02.710Z,14.77
2018-08-12T02:22:30.421Z,14.78
2018-08-12T02:24:58.169Z,14.35
2018-08-12T02:27:25.902Z,13.86
2018-08-12T02:29:53.609Z,13.88
2018-08-12T02:32:21.271Z,14.23
2018-08-12T02:34:49.009Z,14.50
2018-08-12T02:37:16.749Z,14.54
2018-08-12T02:39:44.472Z,14.74
2018-08-12T02:42:12.218Z,14.34
2018-08-12T02:44:39.926Z,14.35
2018-08-12T02:47:07.622Z,14.67
2018-08-12T02:49:35.389Z,14.54
2018-08-12T02:52:03.186Z,14.76
2018-08-12T02:54:30.881Z,14.44
2018-08-12T02:56:58.665Z,14.65
2018-08-12T02:59:26.366Z,14.70
2018-08-12T03:01:54.070Z,14.55
2018-08-12T03:04:21.858Z,14.61
2018-08-12T03:06:49.640Z,14.49
2018-08-12T03:09:17.439Z,14.57
2018-08-12T03:11:45.241Z,14.50
2018-08-12T03:14:13.034Z,14.60
2018-08-12T03:16:40.757Z,14.68
2018-08-12T03:19:08.663Z,14.70
2018-08-12T03:21:36.399Z,14.43
2018-08-12T03:24:04.121Z,14.43
2018-08-12T03:26:31.893Z,14.52
2018-08-12T03:28:59.590Z,14.49
2018-08-12T03:31:27.277Z,14.36
2018-08-12T03:33:55.002Z,14.43
2018-08-12T03:36:22.874Z,14.40
2018-08-12T03:38:50.625Z,14.25
2018-08-12T03:41:18.421Z,14.22
2018-08-12T03:43:46.206Z,14.36
2018-08-12T03:46:13.909Z,14.24
2018-08-12T03:48:41.709Z,14.04
2018-08-12T03:51:09.385Z,13.36
2018-08-12T03:53:37.110Z,13.56
2018-08-12T03:56:04.864Z,13.73
2018-08-12T03:58:32.601Z,13.82
2018-08-12T04:01:00.281Z,13.80
2018-08-12T04:03:28.025Z,14.26
2018-08-12T04:05:55.789Z,14.43
2018-08-12T04:08:23.500Z,14.32
2018-08-12T04:10:51.397Z,14.25
2018-08-12T04:13:19.089Z,14.13
2018-08-12T04:15:46.844Z,14.18
2018-08-12T04:18:14.601Z,14.11
2018-08-12T04:20:42.334Z,14.25
2018-08-12T04:23:10.109Z,14.24
2018-08-12T04:25:37.955Z,14.02
2018-08-12T04:28:05.639Z,14.30
2018-08-12T04:30:33.333Z,14.31
2018-08-12T04:33:01.089Z,14.03
2018-08-12T04:35:28.748Z,13.75
2018-08-12T04:37:56.520Z,13.93
2018-08-12T04:40:24.258Z,13.91
2018-08-12T04:42:52.049Z,14.12
2018-08-12T04:45:19.815Z,14.25
2018-08-12T04:47:47.543Z,14.29
2018-08-12T04:50:15.366Z,14.16
2018-08-12T04:52:43.133Z,14.08
2018-08-12T04:55:10.910Z,14.19
2018-08-12T04:57:38.625Z,14.16
2018-08-12T05:00:07.262Z,13.95
2018-08-12T05:02:35.054Z,13.97
2018-08-12T05:05:02.838Z,14.08
2018-08-12T05:07:30.765Z,13.97
2018-08-12T05:09:58.481Z,13.81
2018-08-12T05:12:26.249Z,13.57
2018-08-12T05:14:53.981Z,13.85
2018-08-12T05:17:21.709Z,13.83
2018-08-12T05:19:49.408Z,14.01
2018-08-12T05:22:17.183Z,13.65
2018-08-12T05:24:44.960Z,13.77
2018-08-12T05:27:12.651Z,13.94
2018-08-12T05:29:40.383Z,13.83
2018-08-12T05:32:08.188Z,13.82
2018-08-12T05:34:35.897Z,13.93
2018-08-12T05:37:03.768Z,13.84
2018-08-12T05:39:31.530Z,13.99
2018-08-12T05:41:59.298Z,14.06
2018-08-12T05:44:26.997Z,14.06
2018-08-12T05:46:54.711Z,13.82
2018-08-12T05:49:22.481Z,13.95
2018-08-12T05:51:50.138Z,13.87
2018-08-12T05:54:17.853Z,13.98
2018-08-12T05:56:45.617Z,13.59
2018-08-12T05:59:13.458Z,13.69
2018-08-12T06:01:41.258Z,13.89
2018-08-12T06:04:09.052Z,13.73
2018-08-12T06:06:36.755Z,13.68
2018-08-12T06:09:07.668Z,13.61
2018-08-12T06:11:35.484Z,13.25
2018-08-12T06:14:03.853Z,13.65
2018-08-12T06:16:31.653Z,13.58
2018-08-12T06:18:59.450Z,13.48
2018-08-12T06:21:27.145Z,13.30
2018-08-12T06:23:54.854Z,13.43
2018-08-12T06:26:22.592Z,13.21
2018-08-12T06:28:50.281Z,13.56
2018-08-12T06:31:18.050Z,13.67
2018-08-12T06:33:45.797Z,13.61
2018-08-12T06:36:13.571Z,13.73
2018-08-12T06:38:41.346Z,13.71
2018-08-12T06:41:09.081Z,13.75
2018-08-12T06:43:36.857Z,13.82
2018-08-12T06:46:04.649Z,13.82
2018-08-12T06:48:32.428Z,13.65
2018-08-12T06:51:00.110Z,13.74
2018-08-12T06:53:27.841Z,13.88
2018-08-12T06:55:55.593Z,13.92
2018-08-12T06:58:23.350Z,13.88
2018-08-12T07:00:51.264Z,13.86
2018-08-12T07:03:18.977Z,13.75
2018-08-12T07:05:46.733Z,13.91
2018-08-12T07:08:14.479Z,13.84
2018-08-12T07:10:42.232Z,14.01
2018-08-12T07:13:09.994Z,13.84
2018-08-12T07:15:37.799Z,13.94
2018-08-12T07:18:05.623Z,13.91
2018-08-12T07:20:33.382Z,13.91
2018-08-12T07:23:01.101Z,14.07
2018-08-12T07:25:28.797Z,13.81
2018-08-12T07:27:56.530Z,13.93
2018-08-12T07:30:24.394Z,13.89
2018-08-12T07:32:52.217Z,13.84
2018-08-12T07:35:19.973Z,14.06
2018-08-12T07:37:47.741Z,14.14
2018-08-12T07:40:17.766Z,13.71
2018-08-12T07:42:46.142Z,13.86
2018-08-12T07:45:13.861Z,13.96
2018-08-12T07:47:42.069Z,14.12
2018-08-12T07:50:10.396Z,14.02
2018-08-12T07:52:41.162Z,14.05
2018-08-12T07:55:12.351Z,14.00
2018-08-12T07:57:40.724Z,14.14
2018-08-12T08:00:14.365Z,14.00
2018-08-12T08:02:42.145Z,14.18
2018-08-12T08:05:09.938Z,14.41
2018-08-12T08:07:37.733Z,14.37
2018-08-12T08:10:07.753Z,14.32
2018-08-12T08:12:35.629Z,14.42
2018-08-12T08:15:04.340Z,14.28
2018-08-12T08:17:32.005Z,14.43
2018-08-12T08:19:59.745Z,14.48
2018-08-12T08:22:27.501Z,14.49
2018-08-12T08:24:55.213Z,14.50
2018-08-12T08:27:22.865Z,14.56
2018-08-12T08:29:50.641Z,14.50
2018-08-12T08:32:18.513Z,14.53
2018-08-12T08:34:46.178Z,14.64
2018-08-12T08:37:13.975Z,14.67
2018-08-12T08:39:41.719Z,14.73
2018-08-12T08:42:09.530Z,14.75
2018-08-12T08:44:37.354Z,14.67
2018-08-12T08:47:05.154Z,14.78
2018-08-12T08:49:32.920Z,14.85
2018-08-12T08:52:00.678Z,14.96
2018-08-12T08:54:28.439Z,14.97
2018-08-12T08:56:56.162Z,14.96
2018-08-12T08:59:23.890Z,14.95
2018-08-12T09:01:51.640Z,15.03
2018-08-12T09:04:19.424Z,15.11
2018-08-12T09:06:47.245Z,15.05
2018-08-12T09:09:15.852Z,14.82
2018-08-12T09:11:43.947Z,15.22
2018-08-12T09:14:12.059Z,15.17
2018-08-12T09:16:39.985Z,15.31
2018-08-12T09:19:07.689Z,15.37
2018-08-12T09:21:35.389Z,15.41
2018-08-12T09:24:03.193Z,15.46
2018-08-12T09:26:30.958Z,15.44
2018-08-12T09:28:58.817Z,15.47
2018-08-12T09:31:26.520Z,15.54
2018-08-12T09:33:54.221Z,15.53
2018-08-12T09:36:21.983Z,15.53
2018-08-12T09:38:49.666Z,15.65
2018-08-12T09:41:17.401Z,15.68
2018-08-12T09:43:45.130Z,15.61
2018-08-12T09:46:12.825Z,15.75
2018-08-12T09:48:40.582Z,15.77
2018-08-12T09:51:08.381Z,15.76
2018-08-12T09:53:36.065Z,15.85
2018-08-12T09:56:03.937Z,15.93
2018-08-12T09:58:31.741Z,15.87
2018-08-12T10:00:59.438Z,15.95
2018-08-12T10:03:27.135Z,16.01
2018-08-12T10:05:54.836Z,15.98
2018-08-12T10:08:22.522Z,16.10
2018-08-12T10:10:50.197Z,16.16
2018-08-12T10:13:17.897Z,16.25
2018-08-12T10:15:45.725Z,16.19
2018-08-12T10:18:13.509Z,16.25
2018-08-12T10:20:41.262Z,16.34
2018-08-12T10:23:09.055Z,16.35
2018-08-12T10:25:36.749Z,16.45
2018-08-12T10:28:04.574Z,16.40
2018-08-12T10:30:32.293Z,16.50
2018-08-12T10:33:00.022Z,16.47
2018-08-12T10:35:27.883Z,16.54
2018-08-12T10:37:55.601Z,16.61
2018-08-12T10:40:23.318Z,16.67
2018-08-12T10:42:51.113Z,16.67
2018-08-12T10:45:18.854Z,16.69
2018-08-12T10:47:46.677Z,16.76
2018-08-12T10:50:16.813Z,16.80
2018-08-12T10:52:45.293Z,16.85
2018-08-12T10:55:14.549Z,16.86
2018-08-12T10:57:42.582Z,16.76
2018-08-12T11:00:12.061Z,16.96
2018-08-12T11:02:40.101Z,17.01
2018-08-12T11:05:07.919Z,17.04
2018-08-12T11:07:35.848Z,17.06
2018-08-12T11:10:04.634Z,17.12
2018-08-12T11:12:32.414Z,17.21
2018-08-12T11:15:00.082Z,17.13
2018-08-12T11:17:27.852Z,17.09
2018-08-12T11:19:55.507Z,17.14
2018-08-12T11:22:23.271Z,17.12
2018-08-12T11:24:51.041Z,17.14
2018-08-12T11:27:18.809Z,17.25
2018-08-12T11:29:46.591Z,17.30
2018-08-12T11:32:14.285Z,17.32
2018-08-12T11:34:42.095Z,17.35
2018-08-12T11:37:09.837Z,17.35
2018-08-12T11:39:37.546Z,17.36
2018-08-12T11:42:05.350Z,17.35
2018-08-12T11:44:33.101Z,17.40
2018-08-12T11:47:00.913Z,17.49
2018-08-12T11:49:28.712Z,17.46
2018-08-12T11:51:56.517Z,17.51
2018-08-12T11:54:24.218Z,17.59
2018-08-12T11:56:52.028Z,17.62
2018-08-12T11:59:19.805Z,17.58
2018-08-12T12:01:47.461Z,17.60
2018-08-12T12:04:15.185Z,17.64
2018-08-12T12:06:42.909Z,17.67
2018-08-12T12:09:10.937Z,17.66
2018-08-12T12:11:38.632Z,17.63
2018-08-12T12:14:06.427Z,17.64
2018-08-12T12:16:34.490Z,17.65
2018-08-12T12:19:02.345Z,17.70
2018-08-12T12:21:30.018Z,17.68
2018-08-12T12:23:57.737Z,17.66
2018-08-12T12:26:25.710Z,17.68
2018-08-12T12:28:53.439Z,17.64
2018-08-12T12:31:21.207Z,17.66
2018-08-12T12:33:49.182Z,17.74
2018-08-12T12:36:16.937Z,17.78
2018-08-12T12:38:44.657Z,17.79
2018-08-12T12:41:12.369Z,17.71
2018-08-12T12:43:40.085Z,17.67
2018-08-12T12:46:07.851Z,17.67
2018-08-12T12:48:35.625Z,17.68
2018-08-12T12:51:03.476Z,17.65
2018-08-12T12:53:31.165Z,17.64
2018-08-12T12:55:58.945Z,17.68
2018-08-12T12:58:26.637Z,17.73
2018-08-12T13:00:54.408Z,17.75
2018-08-12T13:03:22.201Z,17.69
2018-08-12T13:05:49.957Z,17.65
2018-08-12T13:08:17.661Z,17.67
2018-08-12T13:10:45.420Z,17.68
2018-08-12T13:13:13.138Z,17.72
2018-08-12T13:15:40.816Z,17.74
2018-08-12T13:18:08.754Z,17.68
2018-08-12T13:20:36.442Z,17.71
2018-08-12T13:23:04.219Z,17.68
2018-08-12T13:25:32.040Z,17.67
2018-08-12T13:27:59.809Z,17.71
2018-08-12T13:30:27.517Z,17.72
2018-08-12T13:32:55.247Z,17.73
2018-08-12T13:35:22.968Z,17.75
2018-08-12T13:37:50.705Z,17.77
2018-08-12T13:40:18.698Z,17.75
2018-08-12T13:42:46.886Z,17.71
2018-08-12T13:45:14.871Z,17.74
2018-08-12T13:47:43.744Z,17.74
2018-08-12T13:50:13.665Z,17.75
2018-08-12T13:52:41.496Z,17.75
2018-08-12T13:55:09.259Z,17.74
2018-08-12T13:57:37.153Z,17.74
2018-08-12T14:00:09.551Z,17.75
2018-08-12T14:02:37.516Z,17.72
2018-08-12T14:05:05.630Z,17.76
2018-08-12T14:07:33.295Z,17.79
2018-08-12T14:10:01.136Z,17.83
2018-08-12T14:12:28.962Z,17.80
2018-08-12T14:14:56.644Z,17.79
2018-08-12T14:17:24.553Z,17.66
2018-08-12T14:19:52.284Z,17.85
2018-08-12T14:22:20.027Z,17.89
2018-08-12T14:24:47.823Z,17.89
2018-08-12T14:27:15.629Z,17.80
2018-08-12T14:29:43.305Z,17.86
2018-08-12T14:32:11.190Z,17.84
2018-08-12T14:34:38.995Z,17.70
2018-08-12T14:37:06.892Z,17.86
2018-08-12T14:39:34.718Z,17.93
2018-08-12T14:42:02.448Z,17.89
2018-08-12T14:44:30.186Z,17.90
2018-08-12T14:46:57.916Z,17.93
2018-08-12T14:49:25.660Z,17.91
2018-08-12T14:51:53.380Z,17.95
2018-08-12T14:54:21.237Z,17.97
2018-08-12T14:56:48.951Z,18.08
2018-08-12T14:59:16.639Z,18.06
2018-08-12T15:01:44.364Z,18.09
2018-08-12T15:04:13.177Z,18.05
2018-08-12T15:06:40.875Z,18.01
2018-08-12T15:09:10.385Z,18.00
2018-08-12T15:11:38.196Z,17.96
2018-08-12T15:14:05.923Z,17.93
2018-08-12T15:16:33.593Z,17.87
2018-08-12T15:19:01.607Z,17.89
2018-08-12T15:21:29.289Z,17.86
2018-08-12T15:23:57.081Z,17.81
2018-08-12T15:26:24.855Z,17.79
2018-08-12T15:28:52.563Z,17.71
2018-08-12T15:31:20.360Z,17.71
2018-08-12T15:33:48.069Z,17.74
2018-08-12T15:36:15.843Z,17.76
2018-08-12T15:38:43.482Z,17.75
2018-08-12T15:41:11.246Z,17.77
2018-08-12T15:43:38.993Z,17.72
2018-08-12T15:46:06.766Z,17.76
2018-08-12T15:48:34.457Z,17.77
2018-08-12T15:51:02.213Z,17.75
2018-08-12T15:53:31.463Z,17.72
2018-08-12T15:55:59.141Z,17.74
2018-08-12T15:58:26.880Z,17.65
2018-08-12T16:00:54.590Z,17.55
2018-08-12T16:03:22.360Z,17.53
2018-08-12T16:05:50.060Z,17.49
2018-08-12T16:08:17.926Z,17.56
2018-08-12T16:10:45.616Z,17.55
2018-08-12T16:13:13.321Z,17.52
2018-08-12T16:15:41.069Z,17.59
2018-08-12T16:18:08.775Z,17.56
2018-08-12T16:20:36.474Z,17.57
2018-08-12T16:23:04.252Z,17.55
2018-08-12T16:25:31.957Z,17.54
2018-08-12T16:27:59.730Z,17.51
2018-08-12T16:30:27.481Z,17.43
2018-08-12T16:32:55.165Z,17.50
2018-08-12T16:35:22.892Z,17.53
2018-08-12T16:37:50.600Z,17.51
2018-08-12T16:40:19.514Z,17.51
2018-08-12T16:42:47.634Z,17.53
2018-08-12T16:45:16.158Z,17.50
2018-08-12T16:47:44.326Z,17.51
2018-08-12T16:50:12.310Z,17.53
2018-08-12T16:52:40.623Z,17.55
2018-08-12T16:55:11.262Z,17.57
2018-08-12T16:57:39.084Z,17.63
2018-08-12T17:00:12.144Z,17.63
2018-08-12T17:02:40.009Z,17.62
2018-08-12T17:05:10.047Z,17.63
2018-08-12T17:07:37.975Z,17.63
2018-08-12T17:10:06.682Z,17.60
2018-08-12T17:12:34.363Z,17.66
2018-08-12T17:15:02.478Z,17.53
2018-08-12T17:17:30.226Z,17.52
2018-08-12T17:19:57.929Z,17.40
2018-08-12T17:22:25.854Z,17.42
2018-08-12T17:24:53.546Z,17.46
2018-08-12T17:27:21.282Z,17.40
2018-08-12T17:29:48.990Z,17.39
2018-08-12T17:32:16.781Z,17.38
2018-08-12T17:34:44.503Z,17.29
2018-08-12T17:37:12.208Z,17.26
2018-08-12T17:39:40.058Z,17.30
2018-08-12T17:42:07.806Z,17.36
2018-08-12T17:44:35.571Z,17.37
2018-08-12T17:47:03.361Z,17.31
2018-08-12T17:49:31.070Z,17.34
2018-08-12T17:51:59.328Z,17.44
2018-08-12T17:54:26.993Z,17.40
2018-08-12T17:56:54.741Z,17.31
2018-08-12T17:59:22.494Z,17.31
2018-08-12T18:01:50.223Z,17.06
2018-08-12T18:04:18.038Z,17.24
2018-08-12T18:06:45.789Z,17.18
2018-08-12T18:09:15.029Z,17.28
2018-08-12T18:11:42.888Z,17.36
2018-08-12T18:14:13.294Z,17.28
2018-08-12T18:16:43.408Z,17.19
2018-08-12T18:19:11.188Z,17.08
2018-08-12T18:21:39.103Z,17.31
2018-08-12T18:24:07.651Z,17.07
2018-08-12T18:26:36.817Z,17.03
2018-08-12T18:29:04.813Z,17.08
2018-08-12T18:31:32.562Z,17.14
2018-08-12T18:34:00.377Z,16.99
2018-08-12T18:36:28.945Z,16.99
2018-08-12T18:38:56.895Z,16.91
2018-08-12T18:41:24.933Z,16.81
2018-08-12T18:43:52.744Z,16.81
2018-08-12T18:46:20.637Z,16.83
2018-08-12T18:48:49.542Z,16.78
2018-08-12T18:51:17.446Z,16.69
2018-08-12T18:53:47.037Z,16.75
2018-08-12T18:56:18.228Z,16.60
2018-08-12T18:58:49.069Z,16.55
2018-08-12T19:01:19.018Z,16.54
2018-08-12T19:03:47.758Z,16.43
2018-08-12T19:06:16.649Z,16.45
2018-08-12T19:08:45.313Z,16.41
2018-08-12T19:11:13.116Z,16.28
2018-08-12T19:13:41.007Z,16.26
2018-08-12T19:16:08.908Z,16.26
2018-08-12T19:18:37.233Z,16.14
2018-08-12T19:21:05.106Z,16.14
2018-08-12T19:23:33.722Z,16.23
2018-08-12T19:26:01.494Z,16.08
2018-08-12T19:28:29.366Z,15.97
2018-08-12T19:30:58.141Z,15.99
2018-08-12T19:33:30.493Z,15.91
2018-08-12T19:35:58.371Z,15.89
2018-08-12T19:38:26.122Z,15.84
2018-08-12T19:40:53.831Z,15.92
2018-08-12T19:43:21.624Z,16.02
2018-08-12T19:45:49.297Z,15.88
2018-08-12T19:48:17.532Z,16.08
2018-08-12T19:50:49.247Z,16.17
2018-08-12T19:53:17.142Z,16.05
2018-08-12T19:55:46.417Z,15.77
2018-08-12T19:58:14.185Z,16.03
2018-08-12T20:00:41.906Z,16.00
2018-08-12T20:03:10.100Z,15.70
2018-08-12T20:05:37.876Z,15.56
2018-08-12T20:08:06.638Z,15.45
2018-08-12T20:10:35.187Z,15.54
2018-08-12T20:13:03.505Z,15.40
2018-08-12T20:15:31.483Z,15.24
2018-08-12T20:17:59.573Z,15.06
2018-08-12T20:20:27.369Z,15.03
2018-08-12T20:22:55.082Z,15.19
2018-08-12T20:25:23.705Z,14.96
2018-08-12T20:27:51.511Z,14.78
2018-08-12T20:30:19.226Z,14.96
2018-08-12T20:32:46.944Z,14.83
2018-08-12T20:35:14.709Z,14.89
2018-08-12T20:37:42.729Z,14.76
2018-08-12T20:40:10.732Z,14.78
2018-08-12T20:42:38.532Z,14.75
2018-08-12T20:45:06.694Z,14.65
2018-08-12T20:47:34.509Z,14.91
2018-08-12T20:50:02.296Z,14.52
2018-08-12T20:52:29.999Z,14.73
2018-08-12T20:54:57.731Z,14.77
2018-08-12T20:57:25.406Z,14.74
2018-08-12T20:59:53.075Z,14.50
2018-08-12T21:02:20.773Z,14.38
2018-08-12T21:04:48.438Z,14.65
2018-08-12T21:07:16.094Z,14.60
2018-08-12T21:09:43.798Z,14.81
2018-08-12T21:12:11.559Z,14.45
2018-08-12T21:14:39.189Z,14.40
2018-08-12T21:17:06.939Z,14.42
2018-08-12T21:19:34.614Z,14.36
2018-08-12T21:22:02.302Z,14.51
2018-08-12T21:24:30.185Z,14.64
2018-08-12T21:26:57.885Z,14.66
2018-08-12T21:29:25.580Z,14.54
2018-08-12T21:31:53.407Z,14.34
2018-08-12T21:34:21.099Z,14.32
2018-08-12T21:36:48.803Z,14.42
2018-08-12T21:39:16.504Z,14.45
2018-08-12T21:41:44.157Z,14.42
2018-08-12T21:44:11.841Z,14.35
2018-08-12T21:46:39.516Z,14.54
2018-08-12T21:49:07.227Z,14.49
2018-08-12T21:51:35.178Z,14.32
2018-08-12T21:54:02.980Z,14.25
2018-08-12T21:56:30.647Z,14.46
2018-08-12T21:58:58.347Z,14.60
2018-08-12T22:01:26.074Z,14.54
2018-08-12T22:03:53.871Z,14.45
2018-08-12T22:06:21.552Z,14.50
2018-08-12T22:08:49.312Z,14.45
2018-08-12T22:11:16.980Z,14.26
2018-08-12T22:13:44.742Z,14.23
2018-08-12T22:16:12.525Z,14.44
2018-08-12T22:18:40.212Z,14.34
2018-08-12T22:21:07.978Z,14.39
2018-08-12T22:23:35.715Z,14.30
2018-08-12T22:26:03.551Z,13.87
2018-08-12T22:28:31.288Z,13.94
2018-08-12T22:30:58.990Z,14.10
2018-08-12T22:33:26.676Z,13.77
2018-08-12T22:35:54.341Z,13.62
2018-08-12T22:38:22.098Z,13.91
2018-08-12T22:40:49.841Z,13.65
2018-08-12T22:43:17.541Z,13.46
2018-08-12T22:45:45.256Z,13.50
2018-08-12T22:48:12.893Z,13.38
2018-08-12T22:50:40.559Z,13.55
2018-08-12T22:53:08.245Z,13.71
2018-08-12T22:55:35.921Z,13.55
2018-08-12T22:58:03.623Z,13.64
2018-08-12T23:00:31.384Z,13.60
2018-08-12T23:02:59.092Z,13.39
2018-08-12T23:05:26.807Z,13.22
2018-08-12T23:07:54.615Z,13.16
2018-08-12T23:10:22.301Z,13.20
2018-08-12T23:12:50.057Z,13.34
2018-08-12T23:15:29.017Z,13.28
2018-08-12T23:17:56.766Z,13.18
2018-08-12T23:20:24.439Z,13.04
2018-08-12T23:22:52.158Z,13.29
2018-08-12T23:25:19.879Z,13.33
2018-08-12T23:27:47.549Z,13.30
2018-08-12T23:30:15.266Z,13.47
2018-08-12T23:32:42.969Z,13.27
2018-08-12T23:35:10.674Z,13.35
2018-08-12T23:37:38.370Z,13.47
2018-08-12T23:40:06.718Z,13.54
2018-08-12T23:42:34.429Z,13.45
2018-08-12T23:45:02.161Z,13.49
2018-08-12T23:47:29.896Z,13.50
2018-08-12T23:49:57.545Z,13.50
2018-08-12T23:52:25.253Z,13.32
2018-08-12T23:54:52.921Z,13.37
2018-08-12T23:57:20.581Z,13.24
2018-08-12T23:59:48.311Z,13.45
